createdAt,value
2022-12-18T00:01:21.355Z,83.35
2022-12-18T00:03:48.869Z,82.76
2022-12-18T00:06:16.749Z,83.67
2022-12-18T00:08:44.264Z,82.70
2022-12-18T00:11:16.431Z,83.33
2022-12-18T00:13:44.213Z,82.05
2022-12-18T00:16:13.404Z,82.04
2022-12-18T00:18:40.961Z,82.25
2022-12-18T00:21:09.843Z,82.83
2022-12-18T00:23:38.250Z,82.34
2022-12-18T00:26:08.605Z,83.03
2022-12-18T00:28:35.223Z,82.05
2022-12-18T00:31:10.674Z,82.07
2022-12-18T00:33:38.069Z,82.71
2022-12-18T00:36:07.137Z,83.28
2022-12-18T00:38:34.242Z,84.02
2022-12-18T00:41:01.075Z,84.08
2022-12-18T00:43:28.032Z,83.63
2022-12-18T00:45:55.308Z,84.12
2022-12-18T00:48:22.282Z,84.60
2022-12-18T00:50:49.692Z,84.26
2022-12-18T00:53:16.524Z,84.46
2022-12-18T00:55:44.007Z,84.21
2022-12-18T00:58:11.760Z,84.81
2022-12-18T01:00:39.108Z,84.93
2022-12-18T01:03:06.893Z,84.74
2022-12-18T01:05:34.015Z,85.25
2022-12-18T01:08:01.123Z,85.29
2022-12-18T01:10:27.632Z,85.49
2022-12-18T01:12:54.161Z,85.55
2022-12-18T01:15:21.747Z,86.51
2022-12-18T01:17:48.314Z,87.26
2022-12-18T01:20:15.015Z,86.18
2022-12-18T01:22:41.593Z,84.24
2022-12-18T01:25:08.665Z,83.84
2022-12-18T01:27:35.544Z,83.75
2022-12-18T01:30:02.121Z,82.59
2022-12-18T01:32:31.471Z,83.29
2022-12-18T01:34:58.180Z,82.57
2022-12-18T01:37:25.364Z,83.37
2022-12-18T01:39:55.334Z,82.83
2022-12-18T01:42:22.406Z,82.05
2022-12-18T01:45:24.437Z,82.01
2022-12-18T01:48:03.795Z,82.84
2022-12-18T01:50:48.146Z,83.04
2022-12-18T01:53:22.036Z,84.01
2022-12-18T01:55:53.870Z,84.25
2022-12-18T01:58:24.293Z,83.96
2022-12-18T02:00:50.909Z,84.18
2022-12-18T02:03:17.553Z,84.23
2022-12-18T02:06:08.773Z,84.19
2022-12-18T02:09:20.439Z,85.59
2022-12-18T02:12:20.336Z,85.43
2022-12-18T02:15:30.092Z,85.44
2022-12-18T02:18:24.783Z,84.95
2022-12-18T02:21:00.822Z,84.56
2022-12-18T02:23:48.077Z,85.58
2022-12-18T02:26:31.179Z,86.02
2022-12-18T02:29:03.161Z,86.14
2022-12-18T02:31:36.439Z,85.88
2022-12-18T02:34:05.998Z,85.45
2022-12-18T02:36:34.511Z,84.74
2022-12-18T02:39:02.691Z,83.79
2022-12-18T02:41:30.961Z,84.21
2022-12-18T02:44:00.792Z,84.48
2022-12-18T02:46:32.253Z,84.61
2022-12-18T02:49:43.631Z,85.20
2022-12-18T02:52:27.963Z,85.27
2022-12-18T02:55:01.308Z,85.45
2022-12-18T02:57:49.501Z,86.29
2022-12-18T03:00:32.355Z,86.14
2022-12-18T03:03:24.578Z,85.78
2022-12-18T03:05:57.785Z,85.95
2022-12-18T03:08:28.894Z,86.41
2022-12-18T03:11:11.991Z,85.51
2022-12-18T03:13:48.795Z,85.81
2022-12-18T03:16:23.694Z,84.54
2022-12-18T03:18:58.361Z,84.57
2022-12-18T03:21:30.885Z,85.24
2022-12-18T03:23:58.136Z,84.82
2022-12-18T03:26:27.888Z,84.47
2022-12-18T03:29:02.919Z,84.74
2022-12-18T03:31:32.749Z,84.89
2022-12-18T03:34:03.218Z,84.72
2022-12-18T03:36:31.487Z,84.38
2022-12-18T03:39:00.826Z,84.12
2022-12-18T03:41:45.841Z,83.40
2022-12-18T03:44:21.571Z,83.58
2022-12-18T03:46:56.846Z,83.58
2022-12-18T03:49:32.199Z,84.21
2022-12-18T03:52:12.601Z,84.48
2022-12-18T03:54:41.184Z,84.50
2022-12-18T03:57:14.519Z,85.35
2022-12-18T03:59:42.228Z,84.32
2022-12-18T04:02:10.312Z,84.74
2022-12-18T04:04:39.580Z,84.20
2022-12-18T04:07:06.927Z,84.13
2022-12-18T04:09:36.271Z,85.06
2022-12-18T04:12:02.832Z,85.36
2022-12-18T04:14:29.372Z,86.03
2022-12-18T04:16:55.904Z,85.53
2022-12-18T04:19:22.436Z,85.81
2022-12-18T04:21:48.927Z,86.33
2022-12-18T04:24:15.483Z,85.89
2022-12-18T04:26:41.983Z,86.03
2022-12-18T04:29:08.516Z,85.56
2022-12-18T04:31:35.116Z,85.06
2022-12-18T04:34:01.838Z,84.57
2022-12-18T04:36:28.566Z,84.38
2022-12-18T04:38:55.113Z,83.96
2022-12-18T04:41:21.986Z,83.79
2022-12-18T04:43:48.533Z,84.21
2022-12-18T04:46:15.250Z,83.80
2022-12-18T04:48:41.871Z,83.37
2022-12-18T04:51:08.712Z,84.03
2022-12-18T04:53:35.442Z,84.36
2022-12-18T04:56:11.003Z,84.13
2022-12-18T04:58:39.216Z,83.28
2022-12-18T05:01:05.855Z,83.35
2022-12-18T05:03:32.845Z,83.36
2022-12-18T05:05:59.457Z,83.38
2022-12-18T05:08:26.104Z,83.20
2022-12-18T05:11:01.521Z,82.66
2022-12-18T05:13:29.142Z,82.89
2022-12-18T05:15:56.440Z,82.12
2022-12-18T05:18:23.975Z,82.11
2022-12-18T05:20:54.877Z,81.99
2022-12-18T05:23:23.563Z,82.61
2022-12-18T05:25:58.396Z,82.32
2022-12-18T05:28:26.365Z,82.27
2022-12-18T05:30:55.489Z,81.89
2022-12-18T05:33:23.962Z,82.25
2022-12-18T05:36:02.991Z,82.93
2022-12-18T05:38:31.017Z,83.01
2022-12-18T05:40:58.189Z,83.83
2022-12-18T05:43:26.186Z,83.52
2022-12-18T05:45:53.713Z,82.65
2022-12-18T05:48:21.092Z,83.30
2022-12-18T05:50:49.483Z,83.10
2022-12-18T05:53:18.671Z,84.53
2022-12-18T05:55:45.382Z,84.98
2022-12-18T05:58:13.496Z,85.54
2022-12-18T06:00:41.848Z,86.07
2022-12-18T06:03:10.147Z,86.02
2022-12-18T06:05:39.260Z,85.99
2022-12-18T06:08:06.127Z,86.75
2022-12-18T06:10:33.317Z,86.25
2022-12-18T06:12:59.987Z,86.04
2022-12-18T06:15:26.500Z,85.95
2022-12-18T06:17:53.091Z,86.73
2022-12-18T06:20:20.014Z,86.22
2022-12-18T06:22:46.545Z,86.05
2022-12-18T06:25:13.121Z,86.48
2022-12-18T06:27:39.687Z,85.64
2022-12-18T06:30:07.142Z,85.16
2022-12-18T06:32:33.695Z,84.65
2022-12-18T06:35:00.213Z,85.87
2022-12-18T06:37:27.217Z,85.79
2022-12-18T06:39:54.901Z,84.23
2022-12-18T06:42:25.286Z,84.47
2022-12-18T06:44:51.834Z,84.25
2022-12-18T06:47:18.911Z,84.30
2022-12-18T06:49:45.495Z,84.08
2022-12-18T06:52:11.998Z,83.18
2022-12-18T06:54:38.538Z,82.84
2022-12-18T06:57:05.048Z,82.62
2022-12-18T06:59:31.600Z,81.96
2022-12-18T07:01:58.271Z,81.89
2022-12-18T07:04:32.741Z,81.63
2022-12-18T07:06:59.314Z,81.87
2022-12-18T07:09:26.741Z,82.20
2022-12-18T07:11:53.514Z,82.81
2022-12-18T07:14:20.252Z,82.62
2022-12-18T07:16:47.050Z,82.39
2022-12-18T07:19:13.641Z,83.16
2022-12-18T07:21:40.305Z,83.04
2022-12-18T07:24:07.214Z,82.83
2022-12-18T07:26:33.756Z,82.64
2022-12-18T07:29:00.302Z,82.05
2022-12-18T07:31:28.031Z,82.91
2022-12-18T07:33:55.191Z,81.92
2022-12-18T07:36:25.100Z,82.08
2022-12-18T07:38:53.415Z,81.63
2022-12-18T07:41:20.373Z,82.99
2022-12-18T07:43:47.605Z,82.20
2022-12-18T07:46:15.549Z,82.19
2022-12-18T07:48:43.472Z,82.39
2022-12-18T07:51:14.829Z,83.18
2022-12-18T07:53:42.559Z,82.88
2022-12-18T07:56:27.048Z,82.31
2022-12-18T07:58:54.939Z,82.77
2022-12-18T08:01:21.652Z,83.04
2022-12-18T08:03:48.372Z,83.41
2022-12-18T08:06:15.976Z,83.33
2022-12-18T08:08:43.253Z,82.93
2022-12-18T08:11:09.828Z,83.42
2022-12-18T08:13:36.656Z,83.32
2022-12-18T08:16:06.659Z,82.74
2022-12-18T08:18:34.718Z,83.03
2022-12-18T08:21:15.996Z,83.19
2022-12-18T08:23:43.614Z,83.25
2022-12-18T08:26:14.710Z,83.15
2022-12-18T08:28:41.639Z,83.10
2022-12-18T08:31:09.017Z,82.47
2022-12-18T08:33:38.812Z,81.72
2022-12-18T08:36:06.721Z,81.06
2022-12-18T08:38:34.283Z,81.81
2022-12-18T08:41:06.366Z,81.81
2022-12-18T08:43:51.672Z,81.87
2022-12-18T08:46:19.242Z,81.74
2022-12-18T08:48:46.076Z,82.25
2022-12-18T08:51:12.689Z,81.88
2022-12-18T08:53:39.996Z,81.39
2022-12-18T08:56:07.295Z,81.67
2022-12-18T08:58:33.842Z,81.67
2022-12-18T09:01:10.196Z,81.74
2022-12-18T09:03:37.830Z,82.23
2022-12-18T09:06:05.821Z,82.45
2022-12-18T09:08:35.785Z,81.83
2022-12-18T09:11:02.205Z,82.25
2022-12-18T09:13:28.979Z,82.17
2022-12-18T09:15:56.678Z,82.30
2022-12-18T09:18:25.279Z,83.08
2022-12-18T09:20:53.790Z,82.13
2022-12-18T09:23:20.761Z,82.52
2022-12-18T09:25:47.524Z,82.10
2022-12-18T09:28:19.383Z,82.67
2022-12-18T09:30:50.258Z,83.02
2022-12-18T09:33:18.032Z,82.94
2022-12-18T09:35:45.989Z,84.13
2022-12-18T09:38:14.981Z,84.61
2022-12-18T09:40:48.362Z,84.34
2022-12-18T09:43:20.513Z,83.89
2022-12-18T09:46:00.156Z,83.76
2022-12-18T09:48:32.003Z,83.57
2022-12-18T09:51:05.097Z,83.19
2022-12-18T09:53:37.393Z,83.21
2022-12-18T09:56:06.062Z,83.64
2022-12-18T09:58:48.396Z,82.56
2022-12-18T10:01:21.771Z,83.47
2022-12-18T10:03:49.045Z,82.94
2022-12-18T10:06:24.556Z,82.20
2022-12-18T10:09:02.925Z,83.30
2022-12-18T10:11:49.268Z,82.81
2022-12-18T10:14:34.077Z,82.28
2022-12-18T10:17:15.011Z,82.96
2022-12-18T10:20:15.023Z,82.61
2022-12-18T10:23:05.212Z,81.85
2022-12-18T10:26:02.386Z,80.93
2022-12-18T10:28:31.831Z,81.43
2022-12-18T10:30:59.466Z,81.77
2022-12-18T10:33:30.937Z,80.69
2022-12-18T10:35:57.638Z,80.25
2022-12-18T10:38:32.907Z,81.26
2022-12-18T10:41:26.856Z,80.78
2022-12-18T10:44:13.902Z,81.73
2022-12-18T10:46:40.619Z,80.05
2022-12-18T10:49:24.395Z,80.40
2022-12-18T10:51:52.310Z,79.53
2022-12-18T10:54:26.242Z,78.96
2022-12-18T10:56:52.797Z,79.35
2022-12-18T10:59:19.871Z,79.31
2022-12-18T11:01:51.616Z,79.31
2022-12-18T11:04:29.539Z,78.71
2022-12-18T11:07:03.925Z,79.22
2022-12-18T11:09:35.584Z,78.16
2022-12-18T11:12:11.178Z,78.71
2022-12-18T11:14:47.412Z,78.60
2022-12-18T11:17:35.894Z,77.77
2022-12-18T11:20:06.063Z,78.70
2022-12-18T11:22:35.859Z,77.68
2022-12-18T11:25:32.390Z,77.85
2022-12-18T11:28:30.773Z,78.53
2022-12-18T11:31:32.235Z,76.63
2022-12-18T11:34:31.493Z,77.42
2022-12-18T11:37:01.979Z,77.51
2022-12-18T11:39:31.541Z,77.29
2022-12-18T11:42:13.001Z,76.91
2022-12-18T11:44:43.607Z,76.51
2022-12-18T11:47:12.874Z,76.59
2022-12-18T11:49:41.492Z,76.99
2022-12-18T11:52:23.736Z,76.59
2022-12-18T11:55:01.286Z,76.55
2022-12-18T11:57:30.451Z,76.01
2022-12-18T12:00:16.733Z,75.49
2022-12-18T12:03:01.483Z,75.44
2022-12-18T12:05:51.889Z,75.45
2022-12-18T12:08:18.358Z,75.25
2022-12-18T12:11:03.347Z,75.02
2022-12-18T12:13:33.542Z,74.98
2022-12-18T12:16:19.436Z,74.67
2022-12-18T12:18:55.008Z,74.34
2022-12-18T12:21:45.135Z,75.26
2022-12-18T12:24:17.748Z,74.71
2022-12-18T12:26:56.395Z,74.06
2022-12-18T12:29:54.235Z,74.39
2022-12-18T12:32:44.520Z,74.48
2022-12-18T12:35:43.405Z,74.15
2022-12-18T12:38:51.587Z,74.83
2022-12-18T12:41:41.984Z,74.06
2022-12-18T12:44:14.971Z,73.58
2022-12-18T12:46:43.499Z,73.68
2022-12-18T12:49:16.958Z,73.91
2022-12-18T12:51:47.120Z,73.42
2022-12-18T12:54:20.590Z,74.00
2022-12-18T12:57:04.287Z,73.96
2022-12-18T12:59:30.744Z,74.20
2022-12-18T13:02:30.020Z,74.05
2022-12-18T13:05:07.510Z,74.00
2022-12-18T13:07:40.710Z,73.86
2022-12-18T13:10:15.912Z,74.36
2022-12-18T13:12:58.294Z,75.58
2022-12-18T13:15:46.024Z,74.19
2022-12-18T13:18:14.830Z,74.65
2022-12-18T13:20:53.138Z,74.43
2022-12-18T13:23:25.116Z,75.50
2022-12-18T13:26:11.378Z,74.89
2022-12-18T13:28:47.477Z,75.37
2022-12-18T13:31:34.902Z,75.43
2022-12-18T13:34:27.447Z,74.72
2022-12-18T13:36:58.296Z,74.84
2022-12-18T13:39:35.281Z,75.91
2022-12-18T13:42:08.641Z,75.50
2022-12-18T13:44:41.660Z,76.07
2022-12-18T13:47:36.196Z,75.62
2022-12-18T13:50:11.211Z,75.13
2022-12-18T13:52:40.388Z,75.70
2022-12-18T13:55:17.311Z,75.02
2022-12-18T13:57:44.247Z,76.00
2022-12-18T14:00:22.736Z,76.31
2022-12-18T14:02:51.357Z,75.67
2022-12-18T14:05:27.301Z,76.92
2022-12-18T14:07:55.923Z,76.95
2022-12-18T14:10:47.898Z,77.38
2022-12-18T14:13:16.232Z,77.21
2022-12-18T14:15:47.471Z,77.35
2022-12-18T14:18:25.539Z,77.93
2022-12-18T14:20:55.395Z,78.16
2022-12-18T14:23:29.221Z,79.00
2022-12-18T14:25:57.765Z,77.80
2022-12-18T14:28:27.797Z,78.23
2022-12-18T14:30:55.756Z,78.31
2022-12-18T14:33:25.614Z,78.01
2022-12-18T14:36:05.371Z,79.40
2022-12-18T14:38:42.478Z,78.76
2022-12-18T14:41:13.678Z,79.78
2022-12-18T14:43:43.182Z,79.61
2022-12-18T14:46:35.561Z,79.82
2022-12-18T14:49:27.190Z,81.06
2022-12-18T14:52:05.747Z,80.89
2022-12-18T14:54:36.199Z,79.79
2022-12-18T14:57:05.434Z,80.10
2022-12-18T14:59:33.017Z,81.55
2022-12-18T15:02:06.133Z,81.65
2022-12-18T15:04:36.265Z,80.53
2022-12-18T15:07:24.337Z,80.60
2022-12-18T15:10:08.872Z,81.80
2022-12-18T15:12:42.300Z,81.02
2022-12-18T15:15:33.979Z,81.95
2022-12-18T15:18:14.927Z,81.08
2022-12-18T15:23:54.869Z,81.51
2022-12-18T15:26:23.159Z,81.33
2022-12-18T15:28:56.488Z,81.20
2022-12-18T15:31:37.842Z,80.98
2022-12-18T15:34:22.429Z,81.43
2022-12-18T15:36:49.221Z,82.53
2022-12-18T15:39:15.773Z,82.32
2022-12-18T15:42:02.261Z,81.89
2022-12-18T15:44:28.860Z,81.39
2022-12-18T15:46:59.324Z,81.49
2022-12-18T15:49:26.252Z,81.50
2022-12-18T15:51:56.012Z,81.86
2022-12-18T15:54:42.636Z,82.20
2022-12-18T15:57:24.789Z,82.65
2022-12-18T15:59:57.532Z,81.73
2022-12-18T16:02:24.893Z,82.15
2022-12-18T16:04:55.045Z,81.51
2022-12-18T16:07:24.624Z,82.06
2022-12-18T16:09:52.266Z,82.99
2022-12-18T16:12:25.327Z,81.98
2022-12-18T16:14:51.948Z,81.59
2022-12-18T16:17:18.793Z,81.98
2022-12-18T16:19:45.619Z,82.38
2022-12-18T16:22:24.140Z,82.16
2022-12-18T16:24:52.163Z,82.32
2022-12-18T16:27:19.471Z,82.09
2022-12-18T16:29:46.185Z,82.07
2022-12-18T16:32:16.399Z,82.43
2022-12-18T16:34:44.601Z,82.02
2022-12-18T16:37:13.802Z,81.71
2022-12-18T16:39:41.085Z,82.22
2022-12-18T16:42:15.333Z,81.90
2022-12-18T16:44:42.204Z,81.44
2022-12-18T16:47:09.284Z,81.60
2022-12-18T16:49:37.775Z,81.67
2022-12-18T16:52:05.459Z,81.43
2022-12-18T16:54:33.582Z,81.92
2022-12-18T16:57:00.866Z,81.82
2022-12-18T16:59:27.698Z,82.00
2022-12-18T17:01:55.708Z,81.59
2022-12-18T17:04:22.453Z,82.23
2022-12-18T17:07:10.216Z,81.41
2022-12-18T17:09:37.710Z,81.90
2022-12-18T17:12:04.817Z,82.25
2022-12-18T17:14:32.841Z,82.60
2022-12-18T17:17:25.893Z,81.71
2022-12-18T17:19:52.767Z,83.04
2022-12-18T17:22:20.976Z,81.50
2022-12-18T17:24:50.771Z,81.13
2022-12-18T17:27:17.325Z,82.17
2022-12-18T17:29:47.896Z,82.79
2022-12-18T17:32:18.496Z,82.51
2022-12-18T17:34:45.537Z,82.02
2022-12-18T17:37:12.502Z,81.53
2022-12-18T17:39:39.160Z,82.27
2022-12-18T17:42:05.840Z,82.06
2022-12-18T17:44:34.393Z,81.51
2022-12-18T17:47:01.392Z,82.32
2022-12-18T17:49:28.111Z,81.98
2022-12-18T17:51:54.734Z,81.95
2022-12-18T17:54:21.415Z,82.46
2022-12-18T17:56:47.917Z,82.22
2022-12-18T17:59:14.622Z,82.36
2022-12-18T18:01:44.777Z,81.63
2022-12-18T18:04:12.662Z,82.45
2022-12-18T18:06:39.592Z,81.50
2022-12-18T18:09:12.541Z,81.81
2022-12-18T18:12:02.735Z,82.12
2022-12-18T18:14:29.676Z,81.90
2022-12-18T18:16:56.283Z,82.26
2022-12-18T18:19:25.101Z,81.97
2022-12-18T18:21:53.726Z,81.89
2022-12-18T18:24:25.925Z,80.75
2022-12-18T18:26:52.728Z,80.59
2022-12-18T18:29:21.919Z,80.91
2022-12-18T18:31:48.801Z,81.44
2022-12-18T18:34:18.118Z,81.10
2022-12-18T18:36:48.472Z,80.50
2022-12-18T18:39:15.532Z,81.34
2022-12-18T18:41:47.019Z,79.95
2022-12-18T18:44:14.729Z,80.00
2022-12-18T18:46:41.515Z,80.74
2022-12-18T18:49:08.050Z,80.79
2022-12-18T18:51:35.269Z,79.80
2022-12-18T18:54:02.229Z,79.66
2022-12-18T18:59:15.985Z,80.42
2022-12-18T19:01:42.915Z,80.35
2022-12-18T19:04:10.076Z,79.93
2022-12-18T19:06:36.662Z,80.16
2022-12-18T19:09:05.000Z,79.54
2022-12-18T19:11:50.837Z,80.08
2022-12-18T19:14:17.554Z,79.71
2022-12-18T19:16:45.533Z,79.95
2022-12-18T19:19:13.367Z,79.79
2022-12-18T19:21:40.458Z,79.45
2022-12-18T19:24:09.599Z,80.13
2022-12-18T19:26:40.406Z,79.62
2022-12-18T19:29:09.553Z,79.54
2022-12-18T19:31:37.493Z,79.62
2022-12-18T19:34:07.877Z,79.00
2022-12-18T19:36:36.602Z,79.04
2022-12-18T19:39:09.631Z,80.44
2022-12-18T19:41:36.177Z,78.90
2022-12-18T19:44:08.072Z,78.40
2022-12-18T19:46:35.519Z,79.09
2022-12-18T19:49:02.219Z,78.54
2022-12-18T19:51:30.512Z,78.19
2022-12-18T19:53:59.885Z,77.98
2022-12-18T19:56:32.510Z,79.43
2022-12-18T19:58:59.394Z,78.45
2022-12-18T20:01:27.224Z,78.39
2022-12-18T20:03:54.649Z,77.89
2022-12-18T20:06:25.602Z,77.83
2022-12-18T20:08:54.004Z,78.47
2022-12-18T20:11:25.840Z,78.52
2022-12-18T20:13:52.857Z,78.06
2022-12-18T20:16:19.522Z,77.58
2022-12-18T20:18:46.487Z,78.01
2022-12-18T20:21:14.199Z,78.31
2022-12-18T20:23:41.978Z,78.51
2022-12-18T20:26:09.040Z,78.28
2022-12-18T20:28:36.012Z,78.23
2022-12-18T20:31:08.209Z,77.81
2022-12-18T20:33:37.131Z,78.29
2022-12-18T20:36:06.375Z,78.23
2022-12-18T20:38:35.297Z,76.85
2022-12-18T20:41:06.500Z,78.81
2022-12-18T20:43:33.062Z,78.29
2022-12-18T20:46:04.027Z,78.19
2022-12-18T20:48:32.103Z,78.23
2022-12-18T20:51:11.356Z,77.98
2022-12-18T20:53:42.096Z,77.71
2022-12-18T20:56:17.764Z,77.85
2022-12-18T20:58:48.742Z,77.96
2022-12-18T21:01:19.781Z,77.53
2022-12-18T21:03:47.404Z,77.54
2022-12-18T21:06:15.560Z,78.03
2022-12-18T21:08:42.666Z,77.70
2022-12-18T21:11:40.304Z,76.86
2022-12-18T21:14:10.838Z,76.73
2022-12-18T21:16:38.431Z,76.30
2022-12-18T21:19:04.993Z,75.29
2022-12-18T21:21:34.051Z,76.80
2022-12-18T21:24:06.221Z,75.25
2022-12-18T21:26:32.961Z,75.39
2022-12-18T21:29:02.826Z,75.58
2022-12-18T21:31:32.461Z,76.28
2022-12-18T21:34:01.269Z,75.04
2022-12-18T21:36:30.226Z,75.17
2022-12-18T21:38:57.712Z,76.04
2022-12-18T21:41:44.369Z,75.27
2022-12-18T21:44:14.007Z,76.54
2022-12-18T21:46:44.203Z,76.98
2022-12-18T21:49:12.558Z,75.70
2022-12-18T21:51:39.476Z,75.94
2022-12-18T21:54:06.293Z,75.56
2022-12-18T21:57:13.452Z,75.65
2022-12-18T21:59:42.555Z,75.46
2022-12-18T22:02:15.936Z,75.63
2022-12-18T22:04:43.877Z,75.88
2022-12-18T22:07:11.305Z,76.00
2022-12-18T22:09:38.191Z,76.20
2022-12-18T22:12:05.412Z,76.74
2022-12-18T22:14:32.241Z,76.21
2022-12-18T22:16:58.861Z,77.12
2022-12-18T22:19:26.505Z,76.46
2022-12-18T22:21:53.995Z,75.60
2022-12-18T22:24:25.802Z,75.80
2022-12-18T22:27:01.585Z,75.97
2022-12-18T22:29:47.375Z,76.21
2022-12-18T22:32:17.827Z,76.36
2022-12-18T22:35:01.728Z,76.71
2022-12-18T22:37:31.690Z,76.08
2022-12-18T22:39:58.231Z,75.92
2022-12-18T22:42:25.627Z,76.09
2022-12-18T22:44:52.134Z,76.70
2022-12-18T22:47:18.758Z,76.49
2022-12-18T22:49:45.323Z,76.54
2022-12-18T22:52:11.938Z,76.42
2022-12-18T22:54:40.005Z,75.37
2022-12-18T22:57:06.644Z,75.97
2022-12-18T22:59:33.926Z,75.83
2022-12-18T23:02:00.543Z,76.07
2022-12-18T23:04:36.334Z,75.50
2022-12-18T23:07:05.493Z,76.50
2022-12-18T23:09:33.172Z,76.38
2022-12-18T23:12:00.125Z,76.25
2022-12-18T23:14:27.608Z,76.02
2022-12-18T23:16:54.194Z,75.66
2022-12-18T23:19:21.404Z,75.13
2022-12-18T23:21:50.642Z,74.47
2022-12-18T23:24:17.277Z,75.08
2022-12-18T23:26:43.901Z,76.07
2022-12-18T23:29:10.500Z,75.44
2022-12-18T23:31:39.254Z,74.76
2022-12-18T23:34:07.443Z,75.83
2022-12-18T23:36:45.714Z,74.93
2022-12-18T23:39:28.972Z,74.82
2022-12-18T23:42:00.704Z,76.35
2022-12-18T23:44:28.075Z,76.64
2022-12-18T23:46:55.492Z,74.95
2022-12-18T23:49:22.114Z,75.59
2022-12-18T23:51:48.842Z,76.46
2022-12-18T23:54:15.435Z,75.68
2022-12-18T23:56:45.207Z,75.50
2022-12-18T23:59:11.915Z,74.93
